Time;durP1;ratioP1;P1;durP2;ratioP2;P2;SDS_P1;SDS_P2;PMS_P1;PMS_P2;Temp;Humidity;BMP_temperature;BMP_pressure;BME280_temperature;BME280_humidity;BME280_pressure;Samples;Min_cycle;Max_cycle;Signal;HPM_P1;HPM_P2
2021/06/24 00:01:34;;;;;;;1.92;1.10;;;22.10;91.40;;;;;;4884075;29;20074;-86
2021/06/24 00:04:01;;;;;;;1.95;1.23;;;22.20;91.40;;;;;;4902011;29;20111;-88
2021/06/24 00:06:27;;;;;;;1.67;1.20;;;22.10;91.40;;;;;;4898575;29;20044;-88
2021/06/24 00:08:52;;;;;;;2.00;1.10;;;22.10;91.40;;;;;;4883147;29;20029;-88
2021/06/24 00:11:19;;;;;;;1.73;1.13;;;22.20;91.50;;;;;;4882952;29;20435;-88
2021/06/24 00:13:44;;;;;;;2.17;1.20;;;22.20;91.40;;;;;;4882851;29;20044;-88
2021/06/24 00:16:10;;;;;;;1.95;1.25;;;22.20;91.40;;;;;;4898053;29;20040;-87
2021/06/24 00:18:36;;;;;;;1.67;0.98;;;22.10;91.30;;;;;;4898350;29;20124;-88
2021/06/24 00:21:03;;;;;;;1.30;1.00;;;22.10;91.30;;;;;;4899496;29;20028;-88
2021/06/24 00:23:29;;;;;;;2.00;1.33;;;22.20;91.40;;;;;;4898152;29;20032;-88
2021/06/24 00:25:55;;;;;;;1.48;1.10;;;22.10;91.40;;;;;;4898407;29;20372;-89
2021/06/24 00:28:23;;;;;;;1.30;1.20;;;22.10;91.40;;;;;;4900008;29;20035;-88
2021/06/24 00:30:49;;;;;;;1.13;1.00;;;22.10;91.40;;;;;;4897741;29;20119;-88
2021/06/24 00:33:16;;;;;;;1.05;0.98;;;22.20;91.50;;;;;;4898021;29;20488;-87
2021/06/24 00:35:42;;;;;;;1.25;1.10;;;22.20;91.50;;;;;;4898386;29;20068;-88
2021/06/24 00:38:09;;;;;;;1.08;0.93;;;22.20;91.50;;;;;;4898631;29;20055;-88
2021/06/24 00:40:36;;;;;;;1.55;1.00;;;22.20;91.50;;;;;;4898053;29;20061;-88
2021/06/24 00:43:05;;;;;;;0.93;0.85;;;22.20;91.70;;;;;;4882385;29;20033;-87
2021/06/24 00:45:31;;;;;;;1.08;0.98;;;22.20;91.50;;;;;;4898811;29;20032;-87
2021/06/24 00:47:57;;;;;;;0.82;0.82;;;22.20;91.50;;;;;;4897567;29;20033;-89
2021/06/24 00:50:23;;;;;;;1.33;1.00;;;22.20;91.50;;;;;;4898044;29;20036;-88
2021/06/24 00:52:49;;;;;;;1.20;1.10;;;22.20;91.50;;;;;;4897364;29;20044;-87
2021/06/24 00:55:15;;;;;;;1.48;1.10;;;22.20;91.50;;;;;;4897412;29;20040;-87
2021/06/24 00:57:41;;;;;;;2.00;1.20;;;22.20;91.50;;;;;;4897910;29;20039;-87
2021/06/24 01:00:08;;;;;;;1.25;1.00;;;22.20;91.50;;;;;;4881990;29;20085;-88
2021/06/24 01:02:36;;;;;;;2.42;0.95;;;22.20;91.50;;;;;;4881211;29;20032;-88
2021/06/24 01:05:02;;;;;;;1.35;1.15;;;22.30;91.60;;;;;;4898709;29;20028;-88
2021/06/24 01:07:27;;;;;;;2.20;1.30;;;22.20;91.60;;;;;;4882013;29;20463;-87
2021/06/24 01:09:53;;;;;;;1.35;1.10;;;22.20;91.60;;;;;;4897594;29;20037;-87
2021/06/24 01:12:19;;;;;;;1.13;1.02;;;22.30;91.60;;;;;;4899327;29;20043;-87
2021/06/24 01:14:48;;;;;;;1.30;1.13;;;22.30;91.60;;;;;;4898673;29;20028;-88
2021/06/24 01:17:14;;;;;;;1.38;1.00;;;22.30;91.60;;;;;;4896945;29;20033;-87
2021/06/24 01:19:40;;;;;;;1.35;1.15;;;22.30;91.60;;;;;;4881557;29;20035;-87
2021/06/24 01:22:07;;;;;;;1.20;1.10;;;22.30;91.60;;;;;;4881517;29;20064;-87
2021/06/24 01:24:33;;;;;;;1.10;0.88;;;22.30;91.60;;;;;;4897106;29;20041;-87
2021/06/24 01:26:59;;;;;;;1.10;0.98;;;22.30;91.60;;;;;;4897226;29;20037;-87
2021/06/24 01:29:25;;;;;;;1.20;1.10;;;22.30;91.60;;;;;;4881214;29;20390;-87
2021/06/24 01:31:50;;;;;;;1.88;0.90;;;22.30;91.60;;;;;;4897179;29;20033;-87
2021/06/24 01:34:16;;;;;;;1.40;1.00;;;22.30;91.60;;;;;;4881214;29;20551;-87
2021/06/24 01:36:42;;;;;;;1.02;0.90;;;22.30;91.60;;;;;;4897160;29;20043;-87
2021/06/24 01:39:11;;;;;;;1.00;0.90;;;22.30;91.70;;;;;;4896846;29;20059;-87
2021/06/24 01:41:37;;;;;;;1.92;1.27;;;22.30;91.70;;;;;;4898246;29;20061;-87
2021/06/24 01:44:03;;;;;;;1.50;1.10;;;22.30;91.70;;;;;;4896557;29;20028;-88
2021/06/24 01:46:29;;;;;;;0.80;0.80;;;22.30;91.70;;;;;;4897602;29;20059;-87
2021/06/24 01:48:55;;;;;;;1.35;1.17;;;22.30;91.70;;;;;;4898315;29;20495;-87
2021/06/24 01:51:22;;;;;;;1.10;1.02;;;22.40;91.70;;;;;;4897929;29;20033;-87
2021/06/24 01:53:49;;;;;;;1.20;1.10;;;22.30;91.70;;;;;;4897083;29;20411;-88
2021/06/24 01:56:15;;;;;;;1.05;0.90;;;22.30;91.70;;;;;;4881487;29;20041;-87
2021/06/24 01:58:40;;;;;;;1.33;1.23;;;22.40;91.70;;;;;;4898166;29;20064;-87
2021/06/24 02:01:06;;;;;;;2.00;1.30;;;22.40;91.70;;;;;;4902713;29;20033;-87
2021/06/24 02:03:37;;;;;;;1.13;1.00;;;22.40;91.70;;;;;;4884328;29;20376;-87
2021/06/24 02:06:04;;;;;;;1.52;1.25;;;22.40;91.70;;;;;;4881972;29;20176;-87
2021/06/24 02:08:35;;;;;;;1.30;1.08;;;22.40;91.70;;;;;;4896987;29;20029;-87
2021/06/24 02:11:01;;;;;;;1.13;1.02;;;22.40;91.70;;;;;;4898136;29;20399;-87
2021/06/24 02:13:27;;;;;;;1.00;0.90;;;22.30;91.70;;;;;;4898206;29;20585;-88
2021/06/24 02:15:53;;;;;;;1.10;1.00;;;22.40;91.70;;;;;;4900509;29;20215;-87
2021/06/24 02:18:18;;;;;;;1.52;1.10;;;22.30;91.70;;;;;;4901831;29;20471;-87
2021/06/24 02:20:44;;;;;;;1.33;1.10;;;22.40;91.70;;;;;;4900695;29;20032;-86
2021/06/24 02:23:10;;;;;;;0.90;0.90;;;22.40;91.70;;;;;;4884815;29;20043;-87
2021/06/24 02:25:36;;;;;;;1.83;1.10;;;22.40;91.70;;;;;;4884907;29;20058;-88
2021/06/24 02:28:03;;;;;;;1.60;1.10;;;22.40;91.70;;;;;;4900548;29;20596;-88
2021/06/24 02:30:29;;;;;;;1.60;1.10;;;22.40;91.70;;;;;;4900432;29;20059;-88
2021/06/24 02:32:55;;;;;;;1.35;0.93;;;22.40;91.70;;;;;;4901427;29;20055;-87
2021/06/24 02:35:23;;;;;;;2.60;1.10;;;22.40;91.70;;;;;;4899874;29;20049;-87
2021/06/24 02:37:50;;;;;;;1.08;1.00;;;22.40;91.70;;;;;;4900464;29;20092;-87
2021/06/24 02:40:17;;;;;;;1.80;1.20;;;22.40;91.70;;;;;;4900824;29;20055;-88
2021/06/24 02:42:44;;;;;;;1.67;1.23;;;22.40;91.70;;;;;;4899862;29;20064;-88
2021/06/24 02:45:12;;;;;;;1.30;1.02;;;22.40;91.70;;;;;;4883960;29;20062;-88
2021/06/24 02:47:38;;;;;;;1.27;0.93;;;22.40;91.70;;;;;;4885140;29;20037;-88
2021/06/24 02:50:09;;;;;;;1.52;1.00;;;22.40;91.80;;;;;;4900603;29;20479;-88
2021/06/24 02:52:35;;;;;;;1.85;1.25;;;22.40;91.70;;;;;;4900021;29;20037;-87
2021/06/24 02:55:00;;;;;;;1.48;1.20;;;22.40;91.70;;;;;;4884884;29;20399;-88
2021/06/24 02:57:27;;;;;;;1.30;1.20;;;22.40;91.70;;;;;;4901331;29;20111;-87
2021/06/24 02:59:53;;;;;;;1.15;1.02;;;22.40;91.80;;;;;;4872273;29;20065;-88
2021/06/24 03:02:19;;;;;;;1.23;1.08;;;22.30;91.70;;;;;;4901230;29;20035;-88
2021/06/24 03:04:45;;;;;;;1.00;0.90;;;22.40;91.70;;;;;;4884552;29;20044;-88
2021/06/24 03:07:11;;;;;;;1.30;1.20;;;22.40;91.70;;;;;;4883899;29;20394;-87
2021/06/24 03:09:37;;;;;;;1.63;1.20;;;22.40;91.70;;;;;;4900929;29;20029;-88
2021/06/24 03:12:03;;;;;;;2.45;1.85;;;22.40;91.70;;;;;;4899778;29;20067;-88
2021/06/24 03:14:29;;;;;;;0.98;0.95;;;22.40;91.70;;;;;;4899558;29;20047;-88
2021/06/24 03:16:55;;;;;;;1.58;1.30;;;22.40;91.70;;;;;;4900131;29;20463;-87
2021/06/24 03:19:21;;;;;;;1.10;1.00;;;22.40;91.70;;;;;;4883784;29;20084;-88
2021/06/24 03:21:47;;;;;;;1.30;1.10;;;22.30;91.70;;;;;;4899647;29;20115;-88
2021/06/24 03:24:13;;;;;;;1.60;1.10;;;22.40;91.70;;;;;;4899842;29;20056;-87
2021/06/24 03:26:38;;;;;;;1.20;1.10;;;22.40;91.70;;;;;;4883778;29;20075;-87
2021/06/24 03:29:05;;;;;;;1.60;1.20;;;22.40;91.70;;;;;;4899373;29;20037;-87
2021/06/24 03:31:31;;;;;;;1.80;1.20;;;22.40;91.70;;;;;;4899004;29;20047;-87
2021/06/24 03:33:58;;;;;;;1.23;1.10;;;22.30;91.70;;;;;;4883603;29;20037;-87
2021/06/24 03:36:23;;;;;;;1.45;1.15;;;22.30;91.70;;;;;;4898798;29;20037;-87
2021/06/24 03:38:49;;;;;;;2.55;1.10;;;22.30;91.60;;;;;;4898828;29;20119;-87
2021/06/24 03:41:23;;;;;;;2.42;1.20;;;22.30;91.60;;;;;;4900041;29;20487;-87
2021/06/24 03:43:50;;;;;;;1.70;1.30;;;22.30;91.60;;;;;;4898949;29;20040;-87
2021/06/24 03:46:16;;;;;;;0.95;0.90;;;22.30;91.60;;;;;;4899098;29;20062;-88
2021/06/24 03:48:41;;;;;;;1.58;1.27;;;22.30;91.60;;;;;;4899369;29;20033;-87
2021/06/24 03:51:07;;;;;;;1.42;1.27;;;22.30;91.60;;;;;;4899926;29;20037;-87
2021/06/24 03:53:34;;;;;;;0.90;0.85;;;22.20;91.60;;;;;;4898137;29;20159;-88
2021/06/24 03:56:00;;;;;;;1.08;0.90;;;22.20;91.60;;;;;;4898519;29;20036;-87
2021/06/24 03:58:25;;;;;;;1.58;1.20;;;22.20;91.60;;;;;;4897952;29;20039;-87
2021/06/24 04:00:51;;;;;;;1.85;1.45;;;22.20;91.60;;;;;;4884046;29;20424;-87
2021/06/24 04:03:17;;;;;;;1.27;1.00;;;22.20;91.60;;;;;;4899436;29;20032;-87
2021/06/24 04:05:44;;;;;;;1.48;1.13;;;22.20;91.60;;;;;;4882876;29;20115;-87
2021/06/24 04:08:10;;;;;;;3.03;1.40;;;22.20;91.60;;;;;;4883285;29;20033;-87
2021/06/24 04:10:37;;;;;;;1.63;1.20;;;22.20;91.60;;;;;;4898263;29;20483;-87
2021/06/24 04:13:03;;;;;;;1.20;1.00;;;22.20;91.60;;;;;;4897978;29;20028;-86
2021/06/24 04:15:30;;;;;;;2.78;1.10;;;22.20;91.90;;;;;;4882611;29;20037;-87
2021/06/24 04:17:56;;;;;;;2.67;1.20;;;22.20;91.60;;;;;;4882867;29;20040;-87
2021/06/24 04:20:22;;;;;;;1.55;1.17;;;22.20;91.60;;;;;;4882461;29;20032;-87
2021/06/24 04:22:49;;;;;;;2.03;1.08;;;22.20;91.90;;;;;;4898159;29;20063;-87
2021/06/24 04:25:16;;;;;;;1.55;1.20;;;22.20;91.70;;;;;;4898483;29;20036;-87
2021/06/24 04:27:43;;;;;;;1.90;1.27;;;22.20;91.70;;;;;;4898191;29;20084;-87
2021/06/24 04:30:10;;;;;;;1.10;0.90;;;22.20;91.70;;;;;;4898021;29;20037;-87
2021/06/24 04:32:36;;;;;;;1.20;1.13;;;22.20;91.70;;;;;;4898088;29;20029;-87
2021/06/24 04:35:03;;;;;;;1.80;1.30;;;22.20;91.70;;;;;;4898060;29;20033;-87
2021/06/24 04:37:29;;;;;;;1.30;1.10;;;22.20;91.70;;;;;;4898939;29;20111;-87
2021/06/24 04:39:54;;;;;;;1.30;1.10;;;22.30;91.80;;;;;;4882214;29;20140;-87
2021/06/24 04:42:20;;;;;;;1.33;1.23;;;22.30;91.80;;;;;;4881966;29;20033;-88
2021/06/24 04:44:45;;;;;;;1.95;1.10;;;22.30;91.80;;;;;;4882166;29;20506;-87
2021/06/24 04:47:15;;;;;;;1.30;1.20;;;22.30;91.80;;;;;;4897626;29;20032;-87
2021/06/24 04:49:40;;;;;;;2.65;1.10;;;22.30;91.80;;;;;;4882335;29;20037;-87
2021/06/24 04:52:06;;;;;;;1.40;1.10;;;22.30;91.80;;;;;;4899042;29;20485;-87
2021/06/24 04:54:32;;;;;;;1.92;1.10;;;22.30;91.80;;;;;;4897635;29;20043;-87
2021/06/24 04:56:57;;;;;;;1.67;1.30;;;22.30;91.80;;;;;;4897545;29;20136;-87
2021/06/24 04:59:23;;;;;;;1.20;1.10;;;22.30;91.80;;;;;;4897268;29;20072;-87
2021/06/24 05:01:49;;;;;;;1.67;1.20;;;22.30;91.80;;;;;;4899223;29;20048;-87
2021/06/24 05:04:14;;;;;;;1.15;1.05;;;22.30;91.80;;;;;;4882181;29;20478;-87
2021/06/24 05:06:41;;;;;;;1.58;1.25;;;22.30;91.70;;;;;;4896954;29;20756;-87
2021/06/24 05:09:07;;;;;;;1.10;1.00;;;22.30;91.70;;;;;;4882284;29;20222;-87
2021/06/24 05:11:33;;;;;;;1.67;1.27;;;22.30;91.70;;;;;;4897327;29;20364;-87
2021/06/24 05:13:58;;;;;;;1.45;1.35;;;22.30;91.70;;;;;;4898537;29;20028;-87
2021/06/24 05:16:24;;;;;;;1.75;1.20;;;22.30;91.70;;;;;;4881578;29;20538;-86
2021/06/24 05:18:50;;;;;;;1.30;1.20;;;22.30;91.70;;;;;;4898962;29;20111;-87
2021/06/24 05:21:17;;;;;;;1.77;1.25;;;22.30;91.80;;;;;;4882009;29;20469;-87
2021/06/24 05:23:43;;;;;;;2.15;1.10;;;22.30;91.80;;;;;;4896915;29;20471;-87
2021/06/24 05:26:09;;;;;;;1.10;1.00;;;22.30;91.80;;;;;;4898822;29;20032;-87
2021/06/24 05:28:35;;;;;;;1.25;1.15;;;22.30;91.80;;;;;;4898236;29;20035;-87
2021/06/24 05:31:02;;;;;;;1.10;1.02;;;22.30;91.80;;;;;;4897683;29;20372;-84
2021/06/24 05:33:27;;;;;;;1.17;1.08;;;22.30;91.80;;;;;;4896846;29;20468;-85
2021/06/24 05:35:53;;;;;;;1.98;1.20;;;22.30;91.80;;;;;;4881560;29;20044;-83
2021/06/24 05:38:18;;;;;;;1.58;1.10;;;22.30;91.80;;;;;;4897975;29;20029;-84
2021/06/24 05:40:46;;;;;;;1.23;1.10;;;22.30;91.80;;;;;;4881239;29;20044;-84
2021/06/24 05:43:13;;;;;;;1.65;1.13;;;22.30;91.90;;;;;;4898026;29;20033;-84
2021/06/24 05:45:38;;;;;;;1.65;1.30;;;22.30;91.90;;;;;;4896670;29;20041;-84
2021/06/24 05:48:04;;;;;;;1.40;1.25;;;22.30;91.90;;;;;;4882412;29;20432;-84
2021/06/24 05:50:30;;;;;;;1.42;1.10;;;22.30;91.90;;;;;;4884711;29;20068;-83
2021/06/24 05:52:56;;;;;;;1.48;1.27;;;22.30;91.90;;;;;;4901669;29;20063;-84
2021/06/24 05:58:11;;;;;;;1.52;1.23;;;22.30;91.90;;;;;;4901343;29;20454;-84
2021/06/24 06:00:37;;;;;;;1.73;1.55;;;22.40;91.90;;;;;;4885277;29;20033;-84
2021/06/24 06:03:03;;;;;;;2.60;1.75;;;22.40;91.90;;;;;;4885259;29;20037;-84
2021/06/24 06:05:29;;;;;;;2.70;2.03;;;22.40;91.90;;;;;;4884840;29;20040;-84
2021/06/24 06:07:54;;;;;;;3.72;2.53;;;22.40;91.90;;;;;;4901308;29;20463;-85
2021/06/24 06:10:20;;;;;;;3.72;2.83;;;22.40;91.90;;;;;;4886972;29;20122;-84
2021/06/24 06:12:46;;;;;;;3.50;2.90;;;22.40;91.90;;;;;;4884545;29;20145;-84
2021/06/24 06:15:12;;;;;;;5.22;3.80;;;22.40;91.90;;;;;;4884301;29;20029;-83
2021/06/24 06:17:40;;;;;;;4.55;4.00;;;22.40;91.90;;;;;;4901968;29;20047;-85
2021/06/24 06:20:07;;;;;;;6.30;4.70;;;22.40;91.90;;;;;;4884227;29;20093;-84
2021/06/24 06:22:32;;;;;;;6.28;5.20;;;22.50;91.90;;;;;;4884071;29;20390;-85
2021/06/24 06:24:58;;;;;;;5.75;4.97;;;22.50;91.90;;;;;;4899878;29;20033;-84
2021/06/24 06:27:24;;;;;;;5.95;5.35;;;22.40;91.80;;;;;;4883739;29;20052;-85
2021/06/24 06:29:49;;;;;;;7.45;6.22;;;22.50;91.90;;;;;;4899574;29;20129;-84
2021/06/24 06:32:16;;;;;;;9.10;7.10;;;22.50;91.80;;;;;;4884613;29;20033;-84
2021/06/24 06:34:42;;;;;;;10.20;7.53;;;22.50;91.80;;;;;;4883770;29;20074;-85
2021/06/24 06:37:08;;;;;;;10.52;8.40;;;22.50;91.80;;;;;;4899305;29;20064;-85
2021/06/24 06:39:33;;;;;;;8.50;7.38;;;22.50;91.80;;;;;;4899256;29;20057;-85
2021/06/24 06:41:59;;;;;;;9.50;8.07;;;22.50;91.80;;;;;;4899847;29;20037;-84
2021/06/24 06:44:25;;;;;;;11.32;8.70;;;22.50;91.70;;;;;;4899835;29;20060;-84
2021/06/24 06:46:50;;;;;;;9.90;8.50;;;22.50;91.70;;;;;;4883596;29;20064;-85
2021/06/24 06:49:16;;;;;;;9.52;8.35;;;22.60;91.70;;;;;;4899827;29;20032;-84
2021/06/24 06:51:42;;;;;;;11.40;8.95;;;22.60;91.70;;;;;;4899359;29;20028;-85
2021/06/24 06:54:08;;;;;;;11.38;8.75;;;22.60;91.70;;;;;;4883764;29;20112;-85
2021/06/24 06:56:34;;;;;;;10.40;8.77;;;22.60;91.70;;;;;;4883162;29;20036;-85
2021/06/24 06:59:01;;;;;;;11.73;9.45;;;22.60;91.70;;;;;;4900486;29;20493;-84
2021/06/24 07:01:26;;;;;;;10.80;9.00;;;22.60;91.70;;;;;;4899392;29;20028;-85
2021/06/24 07:03:52;;;;;;;11.15;9.60;;;22.60;91.70;;;;;;4882958;29;20506;-84
2021/06/24 07:06:18;;;;;;;13.23;9.52;;;22.60;91.60;;;;;;4883901;29;20127;-84
2021/06/24 07:08:44;;;;;;;12.05;10.00;;;22.60;91.60;;;;;;4898844;29;20044;-85
2021/06/24 07:11:11;;;;;;;12.73;10.00;;;22.60;91.60;;;;;;4899401;29;20036;-84
2021/06/24 07:13:36;;;;;;;13.95;11.10;;;22.60;91.60;;;;;;4898865;29;20033;-84
2021/06/24 07:16:02;;;;;;;13.55;10.02;;;22.60;91.60;;;;;;4899069;29;20044;-87
2021/06/24 07:18:28;;;;;;;13.52;10.65;;;22.60;91.60;;;;;;4900644;29;20032;-88
2021/06/24 07:20:54;;;;;;;11.98;9.95;;;22.60;91.60;;;;;;4883855;29;20131;-87
2021/06/24 07:23:20;;;;;;;13.38;10.27;;;22.60;91.60;;;;;;4884258;29;20032;-88
2021/06/24 07:25:46;;;;;;;13.52;10.93;;;22.60;91.60;;;;;;4884077;29;20131;-87
2021/06/24 07:28:12;;;;;;;11.93;9.48;;;22.60;91.60;;;;;;4884413;29;20052;-88
2021/06/24 07:30:38;;;;;;;12.05;9.50;;;22.60;91.60;;;;;;4899511;29;20080;-88
2021/06/24 07:33:04;;;;;;;11.88;9.90;;;22.60;91.60;;;;;;4899479;29;20088;-88
2021/06/24 07:35:30;;;;;;;11.55;8.65;;;22.60;91.60;;;;;;4899351;29;20036;-88
2021/06/24 07:37:56;;;;;;;10.40;8.90;;;22.70;91.60;;;;;;4900287;29;20059;-88
2021/06/24 07:40:21;;;;;;;12.82;9.95;;;22.60;91.60;;;;;;4899273;29;20183;-88
2021/06/24 07:42:47;;;;;;;10.60;8.40;;;22.60;91.60;;;;;;4899290;29;20047;-88
2021/06/24 07:45:13;;;;;;;9.57;8.43;;;22.70;91.70;;;;;;4899641;29;20123;-88
2021/06/24 07:47:40;;;;;;;10.88;8.32;;;22.70;91.70;;;;;;4899003;29;20028;-88
2021/06/24 07:50:06;;;;;;;9.88;8.27;;;22.70;91.70;;;;;;4883718;29;20134;-88
2021/06/24 07:52:32;;;;;;;10.52;8.35;;;22.70;91.70;;;;;;4883944;29;20032;-88
2021/06/24 07:54:57;;;;;;;8.13;6.63;;;22.70;91.70;;;;;;4899213;29;20048;-89
2021/06/24 07:57:23;;;;;;;8.27;6.75;;;22.70;91.70;;;;;;4883741;29;20043;-88
2021/06/24 07:59:49;;;;;;;9.85;6.72;;;22.70;91.70;;;;;;4898864;29;20039;-88
2021/06/24 08:02:16;;;;;;;7.43;6.38;;;22.80;91.80;;;;;;4900127;29;20034;-88
2021/06/24 08:04:42;;;;;;;7.28;6.35;;;22.80;92.10;;;;;;4883365;29;20041;-89
2021/06/24 08:07:09;;;;;;;7.30;6.18;;;22.80;92.20;;;;;;4899242;29;20045;-89
2021/06/24 08:09:35;;;;;;;6.95;6.13;;;22.80;92.40;;;;;;4884051;29;20056;-88
2021/06/24 08:12:01;;;;;;;6.97;5.60;;;22.80;92.50;;;;;;4882591;29;20036;-89
2021/06/24 08:14:27;;;;;;;9.02;6.78;;;22.90;92.60;;;;;;4900283;29;20028;-89
2021/06/24 08:16:53;;;;;;;8.10;6.30;;;22.80;92.80;;;;;;4898753;29;20037;-88
2021/06/24 08:19:21;;;;;;;7.78;5.97;;;22.90;92.90;;;;;;4883752;29;20037;-88
2021/06/24 08:21:47;;;;;;;8.15;6.00;;;22.90;92.90;;;;;;4899383;29;20088;-89
2021/06/24 08:24:13;;;;;;;7.55;5.63;;;22.90;92.90;;;;;;4899158;29;20028;-89
2021/06/24 08:26:39;;;;;;;6.45;5.38;;;22.90;92.80;;;;;;4883539;29;20051;-89
2021/06/24 08:29:04;;;;;;;5.95;4.78;;;22.90;92.80;;;;;;4882981;29;20036;-89
2021/06/24 08:31:30;;;;;;;5.22;4.55;;;22.90;92.70;;;;;;4900226;29;20123;-89
2021/06/24 08:33:56;;;;;;;5.45;4.38;;;22.90;92.60;;;;;;4898828;29;20043;-87
2021/06/24 08:36:22;;;;;;;4.55;3.70;;;22.90;92.50;;;;;;4898946;29;20398;-88
2021/06/24 08:38:48;;;;;;;4.55;3.80;;;22.80;92.40;;;;;;4898276;29;20061;-88
2021/06/24 08:41:15;;;;;;;7.03;4.15;;;22.80;92.30;;;;;;4882525;29;20061;-88
2021/06/24 08:43:41;;;;;;;3.58;3.05;;;22.80;92.20;;;;;;4898742;29;20037;-88
2021/06/24 08:46:07;;;;;;;3.65;3.03;;;22.80;92.00;;;;;;4883599;29;20033;-89
2021/06/24 08:48:35;;;;;;;4.22;2.80;;;22.90;91.90;;;;;;4900247;29;20056;-88
2021/06/24 08:51:01;;;;;;;3.00;2.50;;;22.90;91.80;;;;;;4884727;29;20051;-88
2021/06/24 08:53:29;;;;;;;3.67;2.42;;;22.90;91.80;;;;;;4883299;29;20043;-88
2021/06/24 08:55:56;;;;;;;3.53;2.78;;;22.90;91.70;;;;;;4899459;29;20159;-87
2021/06/24 08:58:23;;;;;;;2.45;2.22;;;22.90;91.80;;;;;;4883148;29;20033;-88
2021/06/24 09:00:49;;;;;;;3.40;2.50;;;22.90;91.70;;;;;;4900526;29;20021;-88
2021/06/24 09:03:28;;;;;;;2.85;2.38;;;22.90;91.70;;;;;;4899439;29;20037;-88
2021/06/24 09:05:54;;;;;;;2.15;1.95;;;22.90;91.70;;;;;;4899162;29;20032;-88
2021/06/24 09:08:34;;;;;;;1.92;1.73;;;22.90;91.70;;;;;;4898394;29;20033;-88
2021/06/24 09:11:20;;;;;;;2.20;1.98;;;22.90;91.60;;;;;;4899933;29;20033;-88
2021/06/24 09:13:59;;;;;;;2.28;1.90;;;22.90;91.60;;;;;;4898926;29;20470;-88
2021/06/24 09:16:28;;;;;;;2.20;1.88;;;22.90;91.50;;;;;;4899069;29;20080;-89
2021/06/24 09:19:19;;;;;;;1.90;1.67;;;22.90;91.50;;;;;;4898981;29;20032;-89
2021/06/24 09:22:07;;;;;;;2.85;1.92;;;22.90;91.50;;;;;;4899355;29;20029;-89
2021/06/24 09:24:44;;;;;;;1.70;1.60;;;22.90;91.40;;;;;;4898149;29;20033;-88
2021/06/24 09:27:19;;;;;;;1.77;1.50;;;22.90;91.40;;;;;;4899109;29;20028;-88
2021/06/24 09:30:01;;;;;;;1.75;1.42;;;22.90;91.40;;;;;;4898120;29;20085;-88
2021/06/24 09:32:31;;;;;;;1.75;1.33;;;22.90;91.40;;;;;;4899676;29;20020;-88
2021/06/24 09:34:58;;;;;;;2.58;1.63;;;22.90;91.40;;;;;;4899898;29;20055;-88
2021/06/24 09:37:25;;;;;;;1.60;1.40;;;22.90;91.40;;;;;;4882011;29;20041;-89
2021/06/24 09:39:55;;;;;;;1.20;1.10;;;22.90;91.40;;;;;;4899596;29;20562;-88
2021/06/24 09:42:21;;;;;;;1.30;1.20;;;22.90;91.40;;;;;;4901151;29;20039;-88
2021/06/24 09:44:47;;;;;;;1.30;1.20;;;22.90;91.40;;;;;;4898783;29;20029;-89
2021/06/24 09:47:26;;;;;;;1.20;1.10;;;22.90;91.40;;;;;;4883431;29;20060;-89
2021/06/24 09:50:06;;;;;;;1.33;1.20;;;22.90;91.40;;;;;;4883503;29;20242;-88
2021/06/24 09:52:34;;;;;;;1.10;1.00;;;22.90;91.40;;;;;;4912068;29;20119;-88
2021/06/24 09:55:13;;;;;;;0.90;0.90;;;22.90;91.40;;;;;;4911759;29;20028;-89
2021/06/24 09:57:39;;;;;;;1.20;1.10;;;23.00;91.40;;;;;;4908117;29;20068;-90
2021/06/24 10:00:23;;;;;;;1.27;1.05;;;22.90;91.30;;;;;;4898441;29;20037;-89
2021/06/24 10:03:04;;;;;;;1.27;1.00;;;23.00;91.30;;;;;;4899720;29;20482;-89
2021/06/24 10:05:31;;;;;;;1.17;1.08;;;23.00;91.30;;;;;;4900503;29;20029;-90
2021/06/24 10:07:57;;;;;;;0.70;0.70;;;22.90;91.30;;;;;;4899541;29;20031;-90
2021/06/24 10:10:23;;;;;;;1.65;0.95;;;22.90;91.30;;;;;;4883197;29;20518;-89
2021/06/24 10:12:50;;;;;;;1.40;1.00;;;23.00;91.30;;;;;;4897376;29;20064;-87
2021/06/24 10:15:18;;;;;;;1.02;0.93;;;23.00;91.20;;;;;;4865761;29;20041;-88
2021/06/24 10:17:44;;;;;;;1.20;1.10;;;22.90;91.20;;;;;;4894913;29;20120;-88
2021/06/24 10:20:11;;;;;;;0.98;0.90;;;23.00;91.50;;;;;;4897965;29;20071;-86
2021/06/24 10:22:39;;;;;;;1.45;1.02;;;23.00;91.30;;;;;;4881206;29;20466;-87
2021/06/24 10:25:11;;;;;;;1.10;1.00;;;23.00;91.30;;;;;;4895920;29;20092;-85
2021/06/24 10:27:40;;;;;;;1.02;0.95;;;23.00;91.30;;;;;;4897366;29;20039;-85
2021/06/24 10:30:13;;;;;;;0.90;0.90;;;23.00;91.20;;;;;;4895886;29;20040;-86
2021/06/24 10:32:40;;;;;;;1.02;0.93;;;23.00;91.20;;;;;;4896306;29;20482;-85
2021/06/24 10:35:29;;;;;;;0.90;0.90;;;23.00;91.20;;;;;;4882860;29;20033;-85
2021/06/24 10:37:55;;;;;;;1.00;0.80;;;23.00;91.20;;;;;;4899769;29;20131;-86
2021/06/24 10:40:32;;;;;;;0.80;0.80;;;23.00;91.20;;;;;;4884098;29;20053;-86
2021/06/24 10:43:03;;;;;;;0.65;0.65;;;23.10;91.30;;;;;;4901259;29;20059;-88
2021/06/24 10:45:29;;;;;;;0.90;0.90;;;23.10;91.30;;;;;;4900531;29;20115;-88
2021/06/24 10:47:56;;;;;;;0.90;0.70;;;23.10;91.30;;;;;;4900083;29;20522;-88
2021/06/24 10:50:34;;;;;;;0.57;0.57;;;23.10;91.20;;;;;;4901675;29;20068;-88
2021/06/24 10:53:22;;;;;;;0.75;0.75;;;23.10;91.20;;;;;;4900319;29;20115;-88
2021/06/24 10:55:50;;;;;;;0.73;0.73;;;23.10;91.20;;;;;;4900231;29;20037;-87
2021/06/24 10:58:25;;;;;;;0.63;0.50;;;23.10;91.10;;;;;;4900199;29;20123;-88
2021/06/24 11:01:02;;;;;;;0.50;0.50;;;23.10;91.10;;;;;;4900505;29;20038;-87
2021/06/24 11:03:31;;;;;;;0.40;0.40;;;23.10;91.10;;;;;;4899888;29;20032;-88
2021/06/24 11:06:19;;;;;;;0.47;0.47;;;23.20;91.10;;;;;;4901030;29;20088;-88
2021/06/24 11:08:45;;;;;;;0.50;0.50;;;23.20;91.20;;;;;;4900404;29;20592;-88
2021/06/24 11:11:13;;;;;;;0.65;0.65;;;23.10;90.90;;;;;;4884233;29;20064;-88
2021/06/24 11:13:50;;;;;;;0.70;0.70;;;23.10;90.90;;;;;;4901269;29;20048;-88
2021/06/24 11:16:16;;;;;;;0.50;0.50;;;23.10;90.90;;;;;;4887305;29;20037;-87
2021/06/24 11:18:44;;;;;;;0.55;0.55;;;23.10;90.90;;;;;;4904436;29;20080;-86
2021/06/24 11:21:24;;;;;;;0.50;0.50;;;23.10;90.90;;;;;;4899286;29;20033;-88
2021/06/24 11:23:59;;;;;;;0.70;0.70;;;23.10;91.00;;;;;;4899632;29;20037;-88
2021/06/24 11:26:25;;;;;;;0.50;0.50;;;23.20;91.00;;;;;;4899643;29;20039;-88
2021/06/24 11:28:58;;;;;;;0.52;0.50;;;23.10;91.00;;;;;;4899421;29;20036;-88
2021/06/24 11:31:34;;;;;;;0.40;0.40;;;23.20;91.10;;;;;;4901233;29;20352;-89
2021/06/24 11:37:06;;;;;;;0.50;0.50;;;23.20;91.00;;;;;;4899729;29;20376;-87
2021/06/24 11:39:43;;;;;;;0.40;0.40;;;23.20;91.10;;;;;;4898603;29;20036;-88
2021/06/24 11:42:11;;;;;;;0.40;0.40;;;23.20;91.10;;;;;;4899400;29;20060;-88
2021/06/24 11:44:41;;;;;;;0.50;0.50;;;23.20;91.10;;;;;;4884499;29;20056;-88
2021/06/24 11:47:12;;;;;;;0.50;0.50;;;23.20;91.10;;;;;;4898614;29;20036;-88
2021/06/24 12:03:48;;;;;;;0.40;0.40;;;23.30;91.10;;;;;;4902201;29;20039;-87
2021/06/24 12:06:14;;;;;;;0.35;0.35;;;23.20;91.10;;;;;;4883907;29;20036;-88
2021/06/24 12:08:40;;;;;;;0.40;0.40;;;23.20;91.10;;;;;;4880027;29;20037;-88
2021/06/24 12:11:13;;;;;;;0.40;0.40;;;23.20;91.10;;;;;;4880155;29;20499;-88
2021/06/24 12:13:45;;;;;;;0.30;0.30;;;23.20;91.10;;;;;;4880397;29;20076;-88
2021/06/24 12:16:11;;;;;;;0.35;0.35;;;23.20;91.10;;;;;;4865262;29;20507;-88
2021/06/24 12:18:42;;;;;;;0.40;0.40;;;23.30;91.10;;;;;;4881215;29;20552;-88
2021/06/24 12:21:09;;;;;;;0.30;0.30;;;23.30;91.10;;;;;;4879668;29;20028;-87
2021/06/24 12:23:43;;;;;;;0.40;0.40;;;23.30;91.10;;;;;;4879978;29;20029;-87
2021/06/24 12:26:11;;;;;;;0.32;0.32;;;23.30;91.20;;;;;;4864988;29;20480;-87
2021/06/24 12:28:37;;;;;;;0.52;0.40;;;23.30;91.20;;;;;;4864982;29;20075;-87
2021/06/24 12:31:04;;;;;;;0.40;0.40;;;23.30;91.20;;;;;;4879861;29;20029;-88
2021/06/24 12:33:29;;;;;;;0.40;0.40;;;23.30;91.20;;;;;;4863815;29;20040;-86
2021/06/24 12:35:56;;;;;;;0.32;0.32;;;23.30;91.20;;;;;;4863874;29;20041;-87
2021/06/24 12:38:27;;;;;;;0.30;0.30;;;23.30;91.20;;;;;;4863894;29;20037;-86
2021/06/24 12:41:07;;;;;;;0.32;0.32;;;23.30;91.20;;;;;;4879140;29;20435;-86
2021/06/24 12:43:37;;;;;;;0.40;0.40;;;23.30;91.20;;;;;;4878937;29;20032;-86
2021/06/24 12:46:06;;;;;;;0.35;0.35;;;23.30;91.20;;;;;;4864617;29;20101;-86
2021/06/24 12:48:43;;;;;;;0.40;0.40;;;23.40;91.20;;;;;;4879045;29;20475;-87
2021/06/24 12:51:15;;;;;;;0.70;0.55;;;23.40;91.20;;;;;;4879238;29;20160;-87
2021/06/24 12:53:44;;;;;;;0.40;0.40;;;23.40;91.20;;;;;;4880586;29;20040;-86
2021/06/24 12:56:19;;;;;;;0.30;0.30;;;23.40;91.20;;;;;;4883477;29;20064;-88
2021/06/24 12:58:45;;;;;;;0.40;0.40;;;23.40;91.20;;;;;;4881824;29;20025;-87
2021/06/24 13:01:14;;;;;;;0.40;0.40;;;23.40;91.20;;;;;;4863992;29;20475;-88
2021/06/24 13:03:42;;;;;;;0.30;0.30;;;23.40;91.30;;;;;;4879616;29;20052;-88
2021/06/24 13:06:26;;;;;;;0.40;0.40;;;23.40;91.40;;;;;;4879432;29;20037;-84
2021/06/24 13:09:16;;;;;;;0.40;0.40;;;23.40;91.60;;;;;;4878612;29;20373;-83